createdAt,value
2018-12-08T00:01:11.171Z,77.49
2018-12-08T00:04:14.665Z,77.52
2018-12-08T00:07:18.106Z,76.67
2018-12-08T00:10:21.592Z,76.85
2018-12-08T00:13:25.088Z,76.78
2018-12-08T00:16:28.473Z,76.68
2018-12-08T00:19:32.016Z,77.67
2018-12-08T00:22:35.589Z,77.69
2018-12-08T00:25:39.071Z,77.51
2018-12-08T00:28:42.646Z,78.46
2018-12-08T00:31:46.967Z,78.08
2018-12-08T00:34:50.528Z,77.41
2018-12-08T00:37:53.926Z,77.21
2018-12-08T00:40:57.481Z,76.67
2018-12-08T00:44:01.072Z,76.63
2018-12-08T00:47:04.596Z,75.67
2018-12-08T00:50:09.946Z,74.85
2018-12-08T00:53:13.426Z,74.51
2018-12-08T00:56:16.941Z,75.16
2018-12-08T00:59:20.512Z,74.18
2018-12-08T01:02:24.000Z,73.83
2018-12-08T01:05:27.682Z,73.97
2018-12-08T01:08:31.194Z,73.92
2018-12-08T01:11:34.687Z,73.12
2018-12-08T01:14:38.180Z,73.13
2018-12-08T01:17:42.991Z,72.74
2018-12-08T01:20:46.553Z,72.21
2018-12-08T01:23:50.068Z,72.05
2018-12-08T01:26:53.608Z,72.51
2018-12-08T01:29:57.206Z,72.44
2018-12-08T01:33:00.908Z,72.30
2018-12-08T01:36:04.529Z,72.05
2018-12-08T01:39:08.484Z,71.34
2018-12-08T01:42:12.044Z,71.44
2018-12-08T01:45:15.647Z,71.44
2018-12-08T01:48:19.369Z,71.80
2018-12-08T01:51:23.017Z,72.50
2018-12-08T01:54:26.500Z,72.17
2018-12-08T01:57:30.285Z,72.63
2018-12-08T02:00:34.332Z,74.08
2018-12-08T02:03:37.921Z,73.93
2018-12-08T02:06:41.612Z,73.79
2018-12-08T02:09:45.244Z,74.40
2018-12-08T02:12:48.852Z,74.92
2018-12-08T02:15:52.469Z,75.94
2018-12-08T02:18:56.070Z,76.79
2018-12-08T02:21:59.730Z,76.73
2018-12-08T02:25:03.842Z,77.44
2018-12-08T02:28:07.384Z,77.25
2018-12-08T02:31:11.350Z,77.51
2018-12-08T02:34:15.021Z,77.21
2018-12-08T02:37:18.911Z,76.94
2018-12-08T02:40:22.537Z,77.32
2018-12-08T02:43:26.095Z,76.10
2018-12-08T02:46:29.725Z,76.02
2018-12-08T02:49:33.338Z,76.46
2018-12-08T02:52:36.927Z,76.54
2018-12-08T02:55:40.535Z,76.54
2018-12-08T02:58:44.050Z,76.61
2018-12-08T03:01:47.554Z,76.99
2018-12-08T03:04:51.118Z,76.68
2018-12-08T03:07:54.708Z,77.02
2018-12-08T03:10:58.291Z,77.13
2018-12-08T03:14:01.796Z,77.63
2018-12-08T03:17:05.362Z,78.24
2018-12-08T03:20:08.964Z,77.76
2018-12-08T03:23:12.614Z,77.60
2018-12-08T03:26:16.123Z,77.59
2018-12-08T03:29:19.670Z,77.15
2018-12-08T03:32:23.374Z,76.63
2018-12-08T03:35:27.088Z,77.12
2018-12-08T03:38:30.662Z,76.58
2018-12-08T03:41:34.177Z,76.90
2018-12-08T03:44:37.713Z,77.39
2018-12-08T03:47:41.358Z,77.32
2018-12-08T03:50:44.827Z,77.66
2018-12-08T03:53:48.348Z,77.94
2018-12-08T03:56:51.937Z,77.70
2018-12-08T03:59:55.549Z,77.56
2018-12-08T04:02:59.184Z,77.20
2018-12-08T04:06:02.822Z,77.05
2018-12-08T04:09:06.506Z,77.61
2018-12-08T04:12:10.214Z,77.54
2018-12-08T04:15:13.806Z,77.79
2018-12-08T04:18:17.553Z,77.90
2018-12-08T04:21:21.236Z,77.73
2018-12-08T04:24:24.765Z,77.78
2018-12-08T04:27:31.210Z,77.50
2018-12-08T04:30:34.722Z,77.62
2018-12-08T04:33:38.160Z,77.60
2018-12-08T04:36:41.784Z,77.63
2018-12-08T04:39:45.271Z,77.68
2018-12-08T04:42:49.058Z,78.24
2018-12-08T04:45:52.578Z,77.99
2018-12-08T04:48:56.136Z,77.61
2018-12-08T04:51:59.721Z,77.88
2018-12-08T04:55:03.273Z,78.07
2018-12-08T04:58:06.901Z,77.59
2018-12-08T05:01:10.533Z,78.38
2018-12-08T05:04:14.061Z,78.19
2018-12-08T05:07:17.643Z,77.89
2018-12-08T05:10:21.188Z,77.88
2018-12-08T05:13:25.003Z,78.85
2018-12-08T05:16:28.472Z,78.84
2018-12-08T05:19:31.937Z,79.22
2018-12-08T05:22:35.547Z,78.98
2018-12-08T05:25:39.146Z,79.36
2018-12-08T05:28:42.816Z,79.16
2018-12-08T05:31:46.321Z,79.14
2018-12-08T05:34:50.016Z,79.14
2018-12-08T05:37:53.527Z,79.59
2018-12-08T05:40:57.116Z,78.78
2018-12-08T05:44:00.936Z,79.00
2018-12-08T05:47:04.503Z,78.33
2018-12-08T05:50:08.760Z,78.61
2018-12-08T05:53:12.344Z,78.27
2018-12-08T05:56:15.875Z,78.77
2018-12-08T05:59:19.403Z,78.61
2018-12-08T06:02:22.936Z,78.67
2018-12-08T06:05:26.589Z,78.22
2018-12-08T06:08:30.175Z,78.46
2018-12-08T06:11:33.682Z,77.51
2018-12-08T06:14:37.251Z,77.04
2018-12-08T06:17:40.803Z,77.23
2018-12-08T06:20:44.301Z,77.59
2018-12-08T06:23:47.837Z,77.05
2018-12-08T06:27:03.377Z,77.51
2018-12-08T06:30:08.757Z,77.11
2018-12-08T06:33:12.366Z,77.41
2018-12-08T06:36:15.933Z,77.50
2018-12-08T06:39:19.745Z,77.34
2018-12-08T06:42:23.337Z,76.76
2018-12-08T06:45:27.278Z,76.72
2018-12-08T06:48:30.769Z,75.82
2018-12-08T06:51:34.488Z,75.16
2018-12-08T06:54:38.016Z,75.19
2018-12-08T06:57:41.543Z,75.16
2018-12-08T07:00:45.124Z,74.49
2018-12-08T07:03:48.908Z,74.48
2018-12-08T07:06:52.331Z,74.44
2018-12-08T07:09:55.705Z,73.92
2018-12-08T07:12:59.320Z,73.98
2018-12-08T07:16:02.801Z,74.48
2018-12-08T07:19:06.276Z,74.03
2018-12-08T07:22:09.940Z,74.12
2018-12-08T07:25:13.424Z,74.11
2018-12-08T07:28:17.365Z,74.05
2018-12-08T07:31:21.028Z,73.75
2018-12-08T07:34:24.749Z,73.83
2018-12-08T07:37:28.304Z,73.98
2018-12-08T07:40:32.092Z,73.93
2018-12-08T07:43:35.988Z,74.16
2018-12-08T07:46:39.690Z,73.49
2018-12-08T07:49:43.348Z,73.65
2018-12-08T07:52:47.026Z,73.83
2018-12-08T07:55:51.678Z,73.88
2018-12-08T07:58:56.209Z,74.08
2018-12-08T08:02:00.418Z,73.78
2018-12-08T08:05:04.023Z,74.26
2018-12-08T08:08:08.712Z,74.22
2018-12-08T08:11:12.488Z,74.97
2018-12-08T08:14:16.137Z,76.03
2018-12-08T08:17:19.805Z,77.05
2018-12-08T08:20:23.530Z,77.57
2018-12-08T08:23:27.101Z,78.58
2018-12-08T08:26:30.839Z,79.61
2018-12-08T08:29:34.638Z,80.18
2018-12-08T08:32:38.347Z,80.00
2018-12-08T08:35:41.802Z,80.61
2018-12-08T08:38:45.466Z,79.45
2018-12-08T08:41:49.105Z,79.30
2018-12-08T08:44:52.685Z,79.88
2018-12-08T08:47:56.565Z,80.18
2018-12-08T08:51:00.205Z,81.76
2018-12-08T08:54:03.965Z,82.75
2018-12-08T08:57:07.753Z,82.44
2018-12-08T09:00:11.656Z,83.43
2018-12-08T09:03:15.146Z,83.75
2018-12-08T09:06:18.708Z,83.71
2018-12-08T09:09:22.267Z,83.41
2018-12-08T09:12:25.817Z,84.30
2018-12-08T09:15:29.452Z,84.71
2018-12-08T09:18:32.965Z,84.36
2018-12-08T09:21:36.549Z,83.94
2018-12-08T09:24:40.108Z,84.36
2018-12-08T09:27:43.620Z,84.68
2018-12-08T09:30:47.204Z,84.22
2018-12-08T09:33:50.870Z,84.15
2018-12-08T09:36:55.384Z,84.67
2018-12-08T09:39:59.079Z,84.03
2018-12-08T09:43:02.546Z,84.40
2018-12-08T09:46:06.045Z,83.92
2018-12-08T09:49:09.595Z,84.08
2018-12-08T09:52:13.087Z,84.09
2018-12-08T09:55:16.891Z,85.13
2018-12-08T09:58:20.874Z,87.11
2018-12-08T10:01:24.446Z,87.39
2018-12-08T10:04:28.058Z,87.75
2018-12-08T10:07:32.763Z,87.97
2018-12-08T10:10:38.751Z,88.74
2018-12-08T10:13:44.339Z,89.27
2018-12-08T10:16:47.864Z,89.60
2018-12-08T10:19:51.214Z,88.65
2018-12-08T10:22:54.927Z,88.02
2018-12-08T10:25:58.431Z,88.44
2018-12-08T10:29:02.067Z,87.52
2018-12-08T10:32:05.805Z,87.29
2018-12-08T10:35:11.392Z,87.32
2018-12-08T10:38:15.129Z,88.80
2018-12-08T10:41:18.580Z,88.94
2018-12-08T10:44:22.048Z,90.10
2018-12-08T10:47:25.672Z,90.21
2018-12-08T10:50:29.243Z,89.03
2018-12-08T10:53:33.804Z,88.70
2018-12-08T10:56:37.765Z,88.76
2018-12-08T10:59:41.255Z,89.38
2018-12-08T11:02:52.472Z,91.09
2018-12-08T11:05:56.022Z,91.02
2018-12-08T11:08:59.620Z,91.19
2018-12-08T11:12:03.340Z,90.36
2018-12-08T11:15:07.476Z,91.43
2018-12-08T11:18:11.185Z,91.27
2018-12-08T11:21:15.125Z,92.94
2018-12-08T11:24:19.315Z,93.94
2018-12-08T11:27:22.867Z,94.79
2018-12-08T11:30:26.284Z,95.96
2018-12-08T11:33:31.966Z,97.11
2018-12-08T11:36:35.472Z,97.65
2018-12-08T11:39:38.944Z,97.95
2018-12-08T11:42:42.503Z,97.96
2018-12-08T11:45:46.995Z,99.64
2018-12-08T11:48:50.479Z,99.20
2018-12-08T11:51:54.030Z,99.00
2018-12-08T11:54:57.579Z,98.94
2018-12-08T11:58:01.087Z,99.99
2018-12-08T12:01:04.573Z,99.29
2018-12-08T12:04:08.006Z,98.60
2018-12-08T12:07:11.637Z,99.61
2018-12-08T12:10:15.231Z,98.85
2018-12-08T12:13:18.813Z,98.99
2018-12-08T12:16:22.295Z,99.36
2018-12-08T12:19:25.691Z,98.65
2018-12-08T12:22:29.095Z,98.80
2018-12-08T12:25:32.798Z,99.26
2018-12-08T12:28:36.293Z,98.76
2018-12-08T12:31:39.914Z,99.14
2018-12-08T12:34:43.430Z,98.62
2018-12-08T12:37:46.889Z,99.01
2018-12-08T12:40:50.317Z,99.04
2018-12-08T12:43:53.801Z,97.34
2018-12-08T12:46:57.318Z,97.10
2018-12-08T12:50:00.689Z,97.52
2018-12-08T12:53:04.209Z,97.55
2018-12-08T12:56:08.663Z,97.59
2018-12-08T12:59:12.038Z,97.66
2018-12-08T13:02:15.612Z,97.27
2018-12-08T13:05:19.150Z,97.60
2018-12-08T13:08:22.671Z,97.77
2018-12-08T13:11:26.062Z,98.53
2018-12-08T13:14:29.580Z,98.34
2018-12-08T13:17:33.047Z,99.01
2018-12-08T13:20:36.550Z,99.50
2018-12-08T13:23:40.200Z,99.55
2018-12-08T13:26:43.584Z,99.43
2018-12-08T13:29:47.059Z,99.71
2018-12-08T13:32:50.587Z,99.63
2018-12-08T13:35:56.366Z,99.88
2018-12-08T13:38:59.915Z,100.00
2018-12-08T13:42:03.537Z,100.00
2018-12-08T13:45:16.784Z,100.00
2018-12-08T13:48:22.075Z,100.00
2018-12-08T13:51:25.810Z,100.00
2018-12-08T13:54:54.807Z,100.00
2018-12-08T13:57:58.513Z,100.00
2018-12-08T14:01:02.268Z,100.00
2018-12-08T14:04:05.790Z,100.00
2018-12-08T14:07:09.253Z,100.00
2018-12-08T14:10:12.969Z,100.00
2018-12-08T14:13:16.536Z,100.00
2018-12-08T14:16:20.402Z,100.00
2018-12-08T14:19:23.986Z,98.86
2018-12-08T14:22:27.655Z,98.26
2018-12-08T14:25:31.283Z,97.61
2018-12-08T14:28:34.817Z,96.96
2018-12-08T14:31:38.444Z,96.27
2018-12-08T14:34:42.099Z,95.70
2018-12-08T14:37:47.156Z,95.31
2018-12-08T14:40:50.716Z,95.25
2018-12-08T14:43:54.305Z,93.75
2018-12-08T14:46:58.233Z,94.98
2018-12-08T14:50:02.316Z,93.73
2018-12-08T14:53:05.987Z,91.58
2018-12-08T14:56:09.658Z,90.08
2018-12-08T14:59:13.363Z,89.03
2018-12-08T15:02:16.974Z,88.39
2018-12-08T15:05:20.607Z,88.16
2018-12-08T15:08:24.295Z,87.57
2018-12-08T15:11:28.005Z,87.06
2018-12-08T15:14:31.666Z,86.90
2018-12-08T15:17:35.293Z,85.83
2018-12-08T15:20:38.914Z,85.90
2018-12-08T15:23:42.722Z,85.30
2018-12-08T15:26:46.320Z,86.02
2018-12-08T15:29:49.836Z,86.63
2018-12-08T15:32:53.446Z,86.72
2018-12-08T15:35:57.132Z,87.15
2018-12-08T15:39:00.646Z,87.95
2018-12-08T15:42:04.157Z,89.31
2018-12-08T15:45:09.945Z,89.36
2018-12-08T15:48:14.467Z,89.19
2018-12-08T15:51:18.065Z,89.91
2018-12-08T15:54:21.552Z,90.61
2018-12-08T15:57:25.069Z,90.82
2018-12-08T16:00:28.653Z,90.41
2018-12-08T16:03:33.427Z,90.61
2018-12-08T16:06:36.953Z,90.68
2018-12-08T16:09:40.526Z,91.19
2018-12-08T16:12:44.500Z,91.87
2018-12-08T16:15:47.908Z,91.06
2018-12-08T16:18:52.809Z,91.39
2018-12-08T16:21:55.093Z,91.64
2018-12-08T16:24:58.569Z,92.14
2018-12-08T16:28:03.200Z,91.54
2018-12-08T16:31:06.748Z,92.32
2018-12-08T16:34:10.260Z,91.38
2018-12-08T16:37:14.263Z,91.69
2018-12-08T16:40:17.756Z,92.04
2018-12-08T16:43:21.343Z,91.86
2018-12-08T16:46:24.874Z,91.53
2018-12-08T16:49:28.533Z,90.22
2018-12-08T16:52:32.108Z,90.49
2018-12-08T16:55:35.644Z,91.37
2018-12-08T16:58:39.323Z,92.17
2018-12-08T17:01:53.109Z,92.68
2018-12-08T17:04:56.845Z,92.71
2018-12-08T17:08:00.377Z,92.34
2018-12-08T17:11:04.235Z,92.06
2018-12-08T17:14:07.855Z,91.86
2018-12-08T17:17:12.369Z,91.64
2018-12-08T17:20:15.910Z,91.48
2018-12-08T17:23:19.467Z,91.24
2018-12-08T17:26:23.109Z,91.24
2018-12-08T17:29:26.464Z,90.93
2018-12-08T17:32:29.942Z,91.26
2018-12-08T17:35:33.467Z,90.53
2018-12-08T17:38:36.990Z,90.96
2018-12-08T17:41:40.424Z,89.76
2018-12-08T17:44:43.908Z,90.13
2018-12-08T17:47:47.365Z,89.54
2018-12-08T17:50:50.954Z,89.31
2018-12-08T17:53:54.572Z,89.23
2018-12-08T17:56:58.166Z,89.10
2018-12-08T18:00:01.767Z,88.71
2018-12-08T18:03:05.548Z,89.37
2018-12-08T18:06:09.050Z,89.60
2018-12-08T18:09:13.550Z,90.28
2018-12-08T18:12:17.087Z,91.35
2018-12-08T18:15:20.504Z,92.25
2018-12-08T18:18:23.975Z,93.17
2018-12-08T18:21:27.471Z,94.07
2018-12-08T18:24:31.097Z,93.89
2018-12-08T18:27:34.564Z,94.70
2018-12-08T18:30:38.083Z,93.48
2018-12-08T18:33:41.585Z,93.29
2018-12-08T18:36:45.200Z,93.35
2018-12-08T18:39:48.768Z,93.76
2018-12-08T18:42:52.493Z,94.48
2018-12-08T18:45:55.926Z,95.63
2018-12-08T18:48:59.576Z,97.06
2018-12-08T18:52:03.288Z,98.21
2018-12-08T18:55:07.106Z,98.34
2018-12-08T18:58:10.907Z,99.97
2018-12-08T19:01:14.504Z,99.94
2018-12-08T19:04:18.161Z,99.19
2018-12-08T19:07:21.766Z,98.84
2018-12-08T19:10:25.369Z,98.30
2018-12-08T19:13:28.880Z,98.14
2018-12-08T19:16:32.509Z,97.20
2018-12-08T19:19:36.059Z,96.78
2018-12-08T19:22:39.735Z,96.34
2018-12-08T19:25:43.266Z,95.59
2018-12-08T19:28:46.935Z,96.25
2018-12-08T19:31:50.546Z,95.88
2018-12-08T19:34:54.142Z,95.92
2018-12-08T19:37:57.762Z,95.47
2018-12-08T19:41:01.379Z,96.49
2018-12-08T19:44:05.069Z,96.13
2018-12-08T19:47:08.769Z,96.23
2018-12-08T19:50:13.117Z,96.52
2018-12-08T19:53:16.766Z,97.57
2018-12-08T19:56:20.403Z,98.65
2018-12-08T19:59:23.966Z,98.52
2018-12-08T20:02:27.470Z,97.34
2018-12-08T20:05:31.381Z,97.73
2018-12-08T20:08:34.912Z,97.42
2018-12-08T20:11:38.668Z,96.29
2018-12-08T20:14:42.404Z,96.94
2018-12-08T20:17:45.977Z,97.02
2018-12-08T20:20:49.904Z,97.44
2018-12-08T20:23:53.707Z,97.53
2018-12-08T20:26:57.386Z,97.50
2018-12-08T20:30:01.069Z,97.99
2018-12-08T20:33:04.660Z,97.68
2018-12-08T20:36:08.158Z,97.61
2018-12-08T20:39:11.663Z,98.11
2018-12-08T20:42:15.331Z,98.90
2018-12-08T20:45:18.920Z,99.40
2018-12-08T20:48:22.435Z,99.81
2018-12-08T20:51:25.882Z,100.00
2018-12-08T20:54:29.459Z,99.82
2018-12-08T20:57:33.056Z,100.00
2018-12-08T21:00:36.765Z,100.00
2018-12-08T21:03:40.283Z,100.00
2018-12-08T21:06:43.861Z,100.00
2018-12-08T21:09:47.491Z,100.00
2018-12-08T21:12:50.994Z,100.00
2018-12-08T21:15:54.495Z,100.00
2018-12-08T21:18:58.091Z,100.00
2018-12-08T21:22:01.673Z,100.00
2018-12-08T21:25:05.305Z,100.00
2018-12-08T21:28:08.989Z,99.97
2018-12-08T21:31:12.567Z,98.67
2018-12-08T21:34:16.034Z,98.42
2018-12-08T21:37:19.568Z,97.61
2018-12-08T21:40:30.951Z,96.47
2018-12-08T21:43:34.552Z,95.22
2018-12-08T21:46:38.151Z,94.81
2018-12-08T21:49:41.883Z,95.15
2018-12-08T21:52:46.391Z,95.14
2018-12-08T21:55:49.956Z,93.97
2018-12-08T21:58:53.544Z,94.30
2018-12-08T22:01:57.071Z,93.48
2018-12-08T22:05:00.683Z,93.37
2018-12-08T22:08:04.485Z,93.81
2018-12-08T22:11:08.527Z,95.00
2018-12-08T22:14:12.005Z,95.77
2018-12-08T22:17:15.712Z,98.37
2018-12-08T22:20:19.361Z,99.99
2018-12-08T22:23:23.008Z,100.00
2018-12-08T22:26:26.619Z,99.89
2018-12-08T22:29:30.269Z,100.00
2018-12-08T22:32:33.927Z,100.00
2018-12-08T22:35:37.578Z,100.00
2018-12-08T22:38:41.138Z,100.00
2018-12-08T22:41:44.578Z,100.00
2018-12-08T22:44:48.140Z,100.00
2018-12-08T22:47:51.693Z,100.00
2018-12-08T22:50:57.050Z,100.00
2018-12-08T22:54:01.881Z,100.00
2018-12-08T22:57:05.839Z,100.00
2018-12-08T23:00:18.773Z,100.00
2018-12-08T23:03:22.251Z,100.00
2018-12-08T23:06:25.609Z,100.00
2018-12-08T23:09:29.193Z,100.00
2018-12-08T23:12:32.780Z,100.00
2018-12-08T23:15:36.194Z,100.00
2018-12-08T23:18:39.796Z,100.00
2018-12-08T23:21:43.707Z,100.00
2018-12-08T23:24:47.339Z,100.00
2018-12-08T23:27:50.870Z,100.00
2018-12-08T23:30:54.393Z,100.00
2018-12-08T23:33:58.898Z,100.00
2018-12-08T23:37:02.320Z,100.00
2018-12-08T23:40:06.608Z,100.00
2018-12-08T23:43:10.070Z,100.00
2018-12-08T23:46:14.500Z,100.00
2018-12-08T23:49:18.192Z,100.00
2018-12-08T23:52:21.680Z,100.00
2018-12-08T23:55:25.221Z,100.00
2018-12-08T23:58:30.705Z,100.00
